createdAt,value
2023-04-26T00:00:01.267Z,83.10
2023-04-26T00:02:08.545Z,82.90
2023-04-26T00:04:16.770Z,82.90
2023-04-26T00:06:24.204Z,83.10
2023-04-26T00:08:32.036Z,83.00
2023-04-26T00:10:39.317Z,82.10
2023-04-26T00:12:48.497Z,81.60
2023-04-26T00:14:55.528Z,82.00
2023-04-26T00:17:04.394Z,81.70
2023-04-26T00:19:11.678Z,81.30
2023-04-26T00:21:19.211Z,81.10
2023-04-26T00:23:27.379Z,80.80
2023-04-26T00:25:34.934Z,80.50
2023-04-26T00:27:42.198Z,79.80
2023-04-26T00:29:51.394Z,79.90
2023-04-26T00:31:58.594Z,79.60
2023-04-26T00:34:06.305Z,79.50
2023-04-26T00:36:13.648Z,79.10
2023-04-26T00:38:21.077Z,78.70
2023-04-26T00:40:28.176Z,78.20
2023-04-26T00:42:35.551Z,78.00
2023-04-26T00:44:43.549Z,78.10
2023-04-26T00:46:55.285Z,77.90
2023-04-26T00:49:02.723Z,78.40
2023-04-26T00:51:10.363Z,77.90
2023-04-26T00:53:19.455Z,77.10
2023-04-26T00:55:28.201Z,77.30
2023-04-26T00:57:35.697Z,77.00
2023-04-26T00:59:43.956Z,76.80
2023-04-26T01:01:52.979Z,76.80
2023-04-26T01:04:00.787Z,75.80
2023-04-26T01:06:08.315Z,75.90
2023-04-26T01:08:18.362Z,76.30
2023-04-26T01:10:25.630Z,76.00
2023-04-26T01:12:33.543Z,75.80
2023-04-26T01:14:40.827Z,75.70
2023-04-26T01:16:49.553Z,74.40
2023-04-26T01:18:58.369Z,74.60
2023-04-26T01:21:06.992Z,74.30
2023-04-26T01:23:15.812Z,74.20
2023-04-26T01:25:24.417Z,73.30
2023-04-26T01:27:31.290Z,73.50
2023-04-26T01:29:38.938Z,73.80
2023-04-26T01:31:46.115Z,73.80
2023-04-26T01:33:53.247Z,73.60
2023-04-26T01:36:00.104Z,73.40
2023-04-26T01:38:08.938Z,73.20
2023-04-26T01:40:18.171Z,73.50
2023-04-26T01:42:25.258Z,73.50
2023-04-26T01:44:32.220Z,71.60
2023-04-26T01:46:41.373Z,71.60
2023-04-26T01:48:48.394Z,72.60
2023-04-26T01:50:55.722Z,72.60
2023-04-26T01:53:03.204Z,72.20
2023-04-26T01:55:11.772Z,72.40
2023-04-26T01:57:20.274Z,72.00
2023-04-26T01:59:27.920Z,71.90
2023-04-26T02:01:35.172Z,72.10
2023-04-26T02:03:43.134Z,72.00
2023-04-26T02:05:51.562Z,71.20
2023-04-26T02:07:58.950Z,71.20
2023-04-26T02:10:06.337Z,70.50
2023-04-26T02:12:13.779Z,70.30
2023-04-26T02:14:22.651Z,70.30
2023-04-26T02:16:30.184Z,70.10
2023-04-26T02:18:37.781Z,70.00
2023-04-26T02:20:46.764Z,70.30
2023-04-26T02:22:54.193Z,69.90
2023-04-26T02:25:01.657Z,69.60
2023-04-26T02:27:08.918Z,70.00
2023-04-26T02:29:16.514Z,69.90
2023-04-26T02:31:25.422Z,70.00
2023-04-26T02:33:33.296Z,70.10
2023-04-26T02:35:40.506Z,70.10
2023-04-26T02:37:49.941Z,69.60
2023-04-26T02:39:57.378Z,70.20
2023-04-26T02:42:04.919Z,70.00
2023-04-26T02:44:12.408Z,69.70
2023-04-26T02:46:20.485Z,69.70
2023-04-26T02:48:29.699Z,69.70
2023-04-26T02:50:37.347Z,69.30
2023-04-26T02:52:45.276Z,69.10
2023-04-26T02:54:52.728Z,68.70
2023-04-26T02:57:00.821Z,68.80
2023-04-26T02:59:08.259Z,69.60
2023-04-26T03:01:15.902Z,69.00
2023-04-26T03:03:23.944Z,67.50
2023-04-26T03:05:33.183Z,67.90
2023-04-26T03:07:40.781Z,68.00
2023-04-26T03:09:48.361Z,68.10
2023-04-26T03:11:57.181Z,67.90
2023-04-26T03:14:04.299Z,67.80
2023-04-26T03:16:12.288Z,67.50
2023-04-26T03:18:19.813Z,67.40
2023-04-26T03:20:27.760Z,67.30
2023-04-26T03:22:36.933Z,66.80
2023-04-26T03:24:45.242Z,66.90
2023-04-26T03:26:52.641Z,66.90
2023-04-26T03:29:00.160Z,67.00
2023-04-26T03:31:07.300Z,66.70
2023-04-26T03:33:16.273Z,65.90
2023-04-26T03:35:23.454Z,65.60
2023-04-26T03:37:30.790Z,65.40
2023-04-26T03:39:44.971Z,64.80
2023-04-26T03:41:54.231Z,65.60
2023-04-26T03:44:03.085Z,65.50
2023-04-26T03:46:10.750Z,64.90
2023-04-26T03:48:18.833Z,65.20
2023-04-26T03:50:26.799Z,65.30
2023-04-26T03:52:34.173Z,64.90
2023-04-26T03:54:44.680Z,65.10
2023-04-26T03:56:54.536Z,64.80
2023-04-26T03:59:02.269Z,65.20
2023-04-26T04:01:11.396Z,65.70
2023-04-26T04:03:19.267Z,66.20
2023-04-26T04:05:26.560Z,66.50
2023-04-26T04:07:34.633Z,66.10
2023-04-26T04:09:43.548Z,66.00
2023-04-26T04:11:51.191Z,65.80
2023-04-26T04:13:58.594Z,65.80
2023-04-26T04:16:06.531Z,65.60
2023-04-26T04:18:13.847Z,65.40
2023-04-26T04:20:22.378Z,65.50
2023-04-26T04:22:29.811Z,65.20
2023-04-26T04:24:37.454Z,65.50
2023-04-26T04:26:46.430Z,65.90
2023-04-26T04:28:54.858Z,66.00
2023-04-26T04:31:02.756Z,66.20
2023-04-26T04:33:10.475Z,66.40
2023-04-26T04:35:17.715Z,66.30
2023-04-26T04:37:26.534Z,66.50
2023-04-26T04:39:33.919Z,66.60
2023-04-26T04:41:41.765Z,66.40
2023-04-26T04:43:51.104Z,65.90
2023-04-26T04:45:58.403Z,65.70
2023-04-26T04:48:06.263Z,65.80
2023-04-26T04:50:17.185Z,65.70
2023-04-26T04:52:24.738Z,65.40
2023-04-26T04:54:31.865Z,65.10
2023-04-26T04:56:39.360Z,64.80
2023-04-26T04:58:47.341Z,64.50
2023-04-26T05:00:58.025Z,64.20
2023-04-26T05:03:11.033Z,63.80
2023-04-26T05:05:18.845Z,63.10
2023-04-26T05:07:27.381Z,63.00
2023-04-26T05:09:36.484Z,63.20
2023-04-26T05:11:43.998Z,63.30
2023-04-26T05:13:53.506Z,63.70
2023-04-26T05:16:02.974Z,63.80
2023-04-26T05:18:10.277Z,63.10
2023-04-26T05:20:18.127Z,62.50
2023-04-26T05:22:26.483Z,62.00
2023-04-26T05:24:34.565Z,61.30
2023-04-26T05:26:41.868Z,61.80
2023-04-26T05:29:18.185Z,61.70
2023-04-26T05:31:47.170Z,61.90
2023-04-26T05:34:14.326Z,61.30
2023-04-26T05:36:22.333Z,61.00
2023-04-26T05:38:29.511Z,60.60
2023-04-26T05:40:36.908Z,60.30
2023-04-26T05:42:45.066Z,60.50
2023-04-26T05:44:52.696Z,60.40
2023-04-26T05:47:01.975Z,60.30
2023-04-26T05:49:09.630Z,61.00
2023-04-26T05:51:17.106Z,60.90
2023-04-26T05:53:24.597Z,60.40
2023-04-26T05:55:32.133Z,59.30
2023-04-26T05:57:39.680Z,60.20
2023-04-26T05:59:47.572Z,60.10
2023-04-26T06:01:56.006Z,60.30
2023-04-26T06:04:05.430Z,60.10
2023-04-26T06:06:21.759Z,59.90
2023-04-26T06:08:29.468Z,60.20
2023-04-26T06:10:38.633Z,59.90
2023-04-26T06:12:46.390Z,60.10
2023-04-26T06:14:54.069Z,60.00
2023-04-26T06:17:04.717Z,59.60
2023-04-26T06:19:13.756Z,59.30
2023-04-26T06:21:21.100Z,59.10
2023-04-26T06:23:28.531Z,59.30
2023-04-26T06:25:36.072Z,59.40
2023-04-26T06:27:43.561Z,59.70
2023-04-26T06:29:51.561Z,59.90
2023-04-26T06:31:59.767Z,60.00
2023-04-26T06:34:08.428Z,59.80
2023-04-26T06:36:18.387Z,59.90
2023-04-26T06:38:25.460Z,60.10
2023-04-26T06:40:32.913Z,60.40
2023-04-26T06:42:40.132Z,59.80
2023-04-26T06:45:18.549Z,59.90
2023-04-26T06:47:26.377Z,60.40
2023-04-26T06:49:38.192Z,60.80
2023-04-26T06:51:47.277Z,61.00
2023-04-26T06:53:55.401Z,61.20
2023-04-26T06:56:02.549Z,61.10
2023-04-26T06:58:10.173Z,60.60
2023-04-26T07:00:18.801Z,61.00
2023-04-26T07:02:26.667Z,60.90
2023-04-26T07:04:34.345Z,60.90
2023-04-26T07:06:43.113Z,60.70
2023-04-26T07:08:52.589Z,61.10
2023-04-26T07:11:00.344Z,60.80
2023-04-26T07:13:09.376Z,61.40
2023-04-26T07:15:17.067Z,61.70
2023-04-26T07:17:24.292Z,61.40
2023-04-26T07:19:31.794Z,61.30
2023-04-26T07:21:39.067Z,61.80
2023-04-26T07:23:46.615Z,62.00
2023-04-26T07:25:55.790Z,61.60
2023-04-26T07:28:04.405Z,61.30
2023-04-26T07:30:12.967Z,61.00
2023-04-26T07:32:20.438Z,61.20
2023-04-26T07:34:27.582Z,60.90
2023-04-26T07:36:35.021Z,60.40
2023-04-26T07:38:42.253Z,60.20
2023-04-26T07:40:49.384Z,60.20
2023-04-26T07:42:58.000Z,59.80
2023-04-26T07:45:05.476Z,59.70
2023-04-26T07:47:16.818Z,59.60
2023-04-26T07:49:23.180Z,59.20
2023-04-26T07:51:30.412Z,58.60
2023-04-26T07:53:37.799Z,59.40
2023-04-26T07:55:45.083Z,59.50
2023-04-26T07:57:52.678Z,59.20
2023-04-26T08:00:02.417Z,58.90
2023-04-26T08:02:24.966Z,58.80
2023-04-26T08:04:37.716Z,58.90
2023-04-26T08:06:46.234Z,58.40
2023-04-26T08:08:54.693Z,58.40
2023-04-26T08:11:02.182Z,59.00
2023-04-26T08:13:09.260Z,58.80
2023-04-26T08:15:18.639Z,58.50
2023-04-26T08:17:25.824Z,58.10
2023-04-26T08:19:34.504Z,58.30
2023-04-26T08:21:41.774Z,58.50
2023-04-26T08:23:49.415Z,59.00
2023-04-26T08:25:56.597Z,58.30
2023-04-26T08:28:04.241Z,58.90
2023-04-26T08:30:13.164Z,59.20
2023-04-26T08:32:22.215Z,58.50
2023-04-26T08:34:30.443Z,58.60
2023-04-26T08:36:41.016Z,58.80
2023-04-26T08:38:48.236Z,58.20
2023-04-26T08:40:57.323Z,58.60
2023-04-26T08:43:04.756Z,58.60
2023-04-26T08:45:14.181Z,58.10
2023-04-26T08:47:25.846Z,57.70
2023-04-26T08:49:43.304Z,57.60
2023-04-26T08:51:53.553Z,57.80
2023-04-26T08:54:04.135Z,57.70
2023-04-26T08:56:13.810Z,57.60
2023-04-26T08:58:22.979Z,58.00
2023-04-26T09:00:30.368Z,57.80
2023-04-26T09:02:40.259Z,57.90
2023-04-26T09:04:47.886Z,57.70
2023-04-26T09:06:56.675Z,57.20
2023-04-26T09:09:06.465Z,56.90
2023-04-26T09:11:14.007Z,56.70
2023-04-26T09:13:21.242Z,56.80
2023-04-26T09:15:29.505Z,56.40
2023-04-26T09:17:39.998Z,56.90
2023-04-26T09:19:47.648Z,57.30
2023-04-26T09:21:54.982Z,58.00
2023-04-26T09:24:05.298Z,58.10
2023-04-26T09:26:22.838Z,58.10
2023-04-26T09:28:30.709Z,57.60
2023-04-26T09:30:42.861Z,57.70
2023-04-26T09:32:57.190Z,57.90
2023-04-26T09:35:05.668Z,58.30
2023-04-26T09:37:15.870Z,58.60
2023-04-26T09:39:36.516Z,58.70
2023-04-26T09:41:49.948Z,58.30
2023-04-26T09:43:57.014Z,58.20
2023-04-26T09:46:04.495Z,58.20
2023-04-26T09:48:24.135Z,58.00
2023-04-26T09:50:33.531Z,58.10
2023-04-26T09:52:47.253Z,58.30
2023-04-26T09:54:56.846Z,58.10
2023-04-26T09:57:04.639Z,58.60
2023-04-26T09:59:12.649Z,59.00
2023-04-26T10:01:20.976Z,59.50
2023-04-26T10:03:30.398Z,60.10
2023-04-26T10:05:37.409Z,61.20
2023-04-26T10:07:45.102Z,62.10
2023-04-26T10:09:53.053Z,62.50
2023-04-26T10:12:01.516Z,63.00
2023-04-26T10:14:09.363Z,63.90
2023-04-26T10:16:16.926Z,64.70
2023-04-26T10:18:24.439Z,64.80
2023-04-26T10:20:34.138Z,64.90
2023-04-26T10:22:48.993Z,65.50
2023-04-26T10:24:58.738Z,65.30
2023-04-26T10:27:06.484Z,65.90
2023-04-26T10:29:14.172Z,66.20
2023-04-26T10:31:21.335Z,66.50
2023-04-26T10:33:29.357Z,66.90
2023-04-26T10:35:39.255Z,67.70
2023-04-26T10:38:13.317Z,68.40
2023-04-26T10:40:30.531Z,69.20
2023-04-26T10:42:38.784Z,68.20
2023-04-26T10:44:47.507Z,68.20
2023-04-26T10:46:58.322Z,68.20
2023-04-26T10:49:20.914Z,68.30
2023-04-26T10:51:29.787Z,68.90
2023-04-26T10:54:03.294Z,69.20
2023-04-26T10:56:11.184Z,70.50
2023-04-26T10:58:31.236Z,69.50
2023-04-26T11:00:38.660Z,70.90
2023-04-26T11:02:59.405Z,71.20
2023-04-26T11:05:08.596Z,72.40
2023-04-26T11:07:18.384Z,72.10
2023-04-26T11:09:51.875Z,72.70
2023-04-26T11:11:59.468Z,73.80
2023-04-26T11:14:06.904Z,73.60
2023-04-26T11:16:15.319Z,73.70
2023-04-26T11:18:23.979Z,73.70
2023-04-26T11:20:34.955Z,74.30
2023-04-26T11:22:46.539Z,74.90
2023-04-26T11:24:54.393Z,75.00
2023-04-26T11:27:01.648Z,74.70
2023-04-26T11:29:14.532Z,74.50
2023-04-26T11:31:23.178Z,73.90
2023-04-26T11:33:30.585Z,73.40
2023-04-26T11:35:39.507Z,73.10
2023-04-26T11:37:50.529Z,73.00
2023-04-26T11:39:57.874Z,73.20
2023-04-26T11:42:09.915Z,73.20
2023-04-26T11:44:16.271Z,72.80
2023-04-26T11:46:25.325Z,72.30
2023-04-26T11:48:33.586Z,72.40
2023-04-26T11:50:42.430Z,72.40
2023-04-26T11:52:51.244Z,73.70
2023-04-26T11:55:07.243Z,74.10
2023-04-26T11:57:21.326Z,74.50
2023-04-26T11:59:30.199Z,74.50
2023-04-26T12:01:37.545Z,74.30
2023-04-26T12:03:45.003Z,74.50
2023-04-26T12:05:58.516Z,74.80
2023-04-26T12:08:07.729Z,75.30
2023-04-26T12:10:21.984Z,75.50
2023-04-26T12:12:29.669Z,76.00
2023-04-26T12:14:37.573Z,75.90
2023-04-26T12:16:46.867Z,76.30
2023-04-26T12:18:54.762Z,76.80
2023-04-26T12:21:02.850Z,77.10
2023-04-26T12:23:12.747Z,77.30
2023-04-26T12:25:22.336Z,76.80
2023-04-26T12:27:29.567Z,75.90
2023-04-26T12:29:37.420Z,76.20
2023-04-26T12:31:44.775Z,75.70
2023-04-26T12:33:52.393Z,77.20
2023-04-26T12:36:01.366Z,77.80
2023-04-26T12:38:10.895Z,78.20
2023-04-26T12:40:20.701Z,78.30
2023-04-26T12:42:28.136Z,78.00
2023-04-26T12:44:35.263Z,78.60
2023-04-26T12:46:42.735Z,78.80
2023-04-26T12:48:51.216Z,79.20
2023-04-26T12:50:58.297Z,79.70
2023-04-26T12:53:05.376Z,80.30
2023-04-26T12:55:15.320Z,80.40
2023-04-26T12:57:22.913Z,80.60
2023-04-26T12:59:29.993Z,80.80
2023-04-26T13:01:37.228Z,81.10
2023-04-26T13:03:44.569Z,81.30
2023-04-26T13:05:51.998Z,81.40
2023-04-26T13:07:59.232Z,81.60
2023-04-26T13:10:06.537Z,81.90
2023-04-26T13:12:15.881Z,82.40
2023-04-26T13:14:24.203Z,82.50
2023-04-26T13:16:32.063Z,82.60
2023-04-26T13:18:39.193Z,82.90
2023-04-26T13:20:46.724Z,83.20
2023-04-26T13:22:54.123Z,83.30
2023-04-26T13:25:01.599Z,83.10
2023-04-26T13:27:08.932Z,82.90
2023-04-26T13:29:18.060Z,82.90
2023-04-26T13:31:25.929Z,83.50
2023-04-26T13:33:33.706Z,83.60
2023-04-26T13:35:40.742Z,83.60
2023-04-26T13:37:48.269Z,83.60
2023-04-26T13:39:55.692Z,83.80
2023-04-26T13:42:04.937Z,84.00
2023-04-26T13:44:12.121Z,84.20
2023-04-26T13:46:21.873Z,84.30
2023-04-26T13:48:29.012Z,84.00
2023-04-26T13:50:36.479Z,83.60
2023-04-26T13:52:43.661Z,83.50
2023-04-26T13:54:51.249Z,83.40
2023-04-26T13:56:59.265Z,83.50
2023-04-26T13:59:07.621Z,83.50
2023-04-26T14:01:15.099Z,83.30
2023-04-26T14:03:24.454Z,83.40
2023-04-26T14:05:31.885Z,83.90
2023-04-26T14:07:39.369Z,84.30
2023-04-26T14:09:46.595Z,84.30
2023-04-26T14:12:06.545Z,84.70
2023-04-26T14:14:15.392Z,84.70
2023-04-26T14:16:22.825Z,85.10
2023-04-26T14:18:31.856Z,85.70
2023-04-26T14:20:39.909Z,86.20
2023-04-26T14:22:47.038Z,86.20
2023-04-26T14:24:54.431Z,85.80
2023-04-26T14:27:04.224Z,85.70
2023-04-26T14:29:11.559Z,85.70
2023-04-26T14:31:19.539Z,85.70
2023-04-26T14:33:27.048Z,85.80
2023-04-26T14:35:36.836Z,86.00
2023-04-26T14:37:44.274Z,86.20
2023-04-26T14:39:51.533Z,86.60
2023-04-26T14:41:59.201Z,87.20
2023-04-26T14:44:06.536Z,87.50
2023-04-26T14:46:14.160Z,87.90
2023-04-26T14:48:21.511Z,88.00
2023-04-26T14:50:29.257Z,88.10
2023-04-26T14:52:40.532Z,88.20
2023-04-26T14:54:47.880Z,88.20
2023-04-26T14:56:55.048Z,88.20
2023-04-26T14:59:02.799Z,88.50
2023-04-26T15:01:10.321Z,88.50
2023-04-26T15:03:18.218Z,88.80
2023-04-26T15:05:25.676Z,89.10
2023-04-26T15:07:33.360Z,89.10
2023-04-26T15:09:42.389Z,89.20
2023-04-26T15:11:49.980Z,89.40
2023-04-26T15:13:57.071Z,89.30
2023-04-26T15:16:08.019Z,89.40
2023-04-26T15:18:15.681Z,89.20
2023-04-26T15:20:23.518Z,89.40
2023-04-26T15:22:31.064Z,89.20
2023-04-26T15:24:42.080Z,89.30
2023-04-26T15:26:49.209Z,89.70
2023-04-26T15:28:56.751Z,90.10
2023-04-26T15:31:07.132Z,90.40
2023-04-26T15:33:15.649Z,90.50
2023-04-26T15:35:23.162Z,90.30
2023-04-26T15:37:30.646Z,90.10
2023-04-26T15:39:37.880Z,90.40
2023-04-26T15:41:46.909Z,90.60
2023-04-26T15:43:57.826Z,91.00
2023-04-26T15:46:05.159Z,91.50
2023-04-26T15:48:13.835Z,92.00
2023-04-26T15:50:21.275Z,92.00
2023-04-26T15:52:28.393Z,91.90
2023-04-26T15:54:35.832Z,91.80
2023-04-26T15:56:44.936Z,91.80
2023-04-26T15:58:52.704Z,91.60
2023-04-26T16:00:59.942Z,91.70
2023-04-26T16:03:08.256Z,91.80
2023-04-26T16:05:15.696Z,91.70
2023-04-26T16:07:23.650Z,91.40
2023-04-26T16:09:31.531Z,91.40
2023-04-26T16:11:39.172Z,91.60
2023-04-26T16:13:52.913Z,91.80
2023-04-26T16:16:00.807Z,92.00
2023-04-26T16:18:08.104Z,92.30
2023-04-26T16:20:16.298Z,92.30
2023-04-26T16:22:23.534Z,92.10
2023-04-26T16:24:31.126Z,92.00
2023-04-26T16:26:38.822Z,91.90
2023-04-26T16:28:47.994Z,91.60
2023-04-26T16:30:55.125Z,91.30
2023-04-26T16:33:02.482Z,91.00
2023-04-26T16:35:11.637Z,90.90
2023-04-26T16:37:18.927Z,91.10
2023-04-26T16:39:27.132Z,91.20
2023-04-26T16:41:34.207Z,91.30
2023-04-26T16:43:41.753Z,91.30
2023-04-26T16:45:50.837Z,91.20
2023-04-26T16:47:58.400Z,91.20
2023-04-26T16:50:06.264Z,91.40
2023-04-26T16:52:13.599Z,91.30
2023-04-26T16:54:20.681Z,91.00
2023-04-26T16:56:28.371Z,91.20
2023-04-26T16:58:35.731Z,91.50
2023-04-26T17:00:43.245Z,91.80
2023-04-26T17:02:53.330Z,92.00
2023-04-26T17:05:01.275Z,92.10
2023-04-26T17:07:08.588Z,92.00
2023-04-26T17:09:16.272Z,91.90
2023-04-26T17:11:23.656Z,92.00
2023-04-26T17:13:34.225Z,91.80
2023-04-26T17:15:41.931Z,92.10
2023-04-26T17:17:51.805Z,92.30
2023-04-26T17:19:59.001Z,92.30
2023-04-26T17:22:07.347Z,92.30
2023-04-26T17:24:14.577Z,92.50
2023-04-26T17:26:22.999Z,92.40
2023-04-26T17:28:30.267Z,92.70
2023-04-26T17:30:37.867Z,92.60
2023-04-26T17:32:45.004Z,92.80
2023-04-26T17:34:53.917Z,92.90
2023-04-26T17:37:01.049Z,93.00
2023-04-26T17:39:08.548Z,93.00
2023-04-26T17:41:16.128Z,93.20
2023-04-26T17:43:23.729Z,93.30
2023-04-26T17:45:31.130Z,93.50
2023-04-26T17:47:38.734Z,93.50
2023-04-26T17:49:45.830Z,93.50
2023-04-26T17:51:54.803Z,93.40
2023-04-26T17:54:01.990Z,93.30
2023-04-26T17:56:11.007Z,93.30
2023-04-26T17:58:18.713Z,93.40
2023-04-26T18:00:26.752Z,93.60
2023-04-26T18:02:34.562Z,93.50
2023-04-26T18:04:42.400Z,93.50
2023-04-26T18:06:50.294Z,93.40
2023-04-26T18:08:59.267Z,93.40
2023-04-26T18:11:06.817Z,93.30
2023-04-26T18:13:14.193Z,93.00
2023-04-26T18:15:21.784Z,93.20
2023-04-26T18:17:28.982Z,93.30
2023-04-26T18:19:36.248Z,93.40
2023-04-26T18:21:43.327Z,92.80
2023-04-26T18:23:50.972Z,92.20
2023-04-26T18:25:59.992Z,91.70
2023-04-26T18:28:09.631Z,91.30
2023-04-26T18:30:19.168Z,91.00
2023-04-26T18:32:26.823Z,90.60
2023-04-26T18:34:33.951Z,89.70
2023-04-26T18:36:41.332Z,89.20
2023-04-26T18:38:48.564Z,88.90
2023-04-26T18:40:56.054Z,88.30
2023-04-26T18:43:05.079Z,88.30
2023-04-26T18:45:13.288Z,88.00
2023-04-26T18:47:20.413Z,87.70
2023-04-26T18:49:28.366Z,87.40
2023-04-26T18:51:35.651Z,87.00
2023-04-26T18:53:43.237Z,86.50
2023-04-26T18:55:50.777Z,86.10
2023-04-26T18:57:58.112Z,85.60
2023-04-26T19:00:08.928Z,85.00
2023-04-26T19:02:16.524Z,84.30
2023-04-26T19:04:24.139Z,84.60
2023-04-26T19:06:32.625Z,84.70
2023-04-26T19:08:39.762Z,84.40
2023-04-26T19:10:47.144Z,84.70
2023-04-26T19:12:54.375Z,84.70
2023-04-26T19:15:01.817Z,84.90
2023-04-26T19:17:10.584Z,85.10
2023-04-26T19:19:18.019Z,85.30
2023-04-26T19:21:25.103Z,84.70
2023-04-26T19:23:32.387Z,84.40
2023-04-26T19:25:39.779Z,84.50
2023-04-26T19:27:47.629Z,84.90
2023-04-26T19:29:54.730Z,85.50
2023-04-26T19:32:05.461Z,85.70
2023-04-26T19:34:14.539Z,85.90
2023-04-26T19:36:22.182Z,85.50
2023-04-26T19:38:29.514Z,86.00
2023-04-26T19:40:37.003Z,86.10
2023-04-26T19:42:44.083Z,85.90
2023-04-26T19:44:51.520Z,86.00
2023-04-26T19:46:58.759Z,85.80
2023-04-26T19:49:06.458Z,85.50
2023-04-26T19:51:19.265Z,85.50
2023-04-26T19:53:26.606Z,84.90
2023-04-26T19:55:33.886Z,84.50
2023-04-26T19:57:42.142Z,84.10
2023-04-26T19:59:49.392Z,83.60
2023-04-26T20:01:56.886Z,83.10
2023-04-26T20:04:04.696Z,82.90
2023-04-26T20:06:15.125Z,82.40
2023-04-26T20:08:22.359Z,82.50
2023-04-26T20:10:29.947Z,82.30
2023-04-26T20:12:38.043Z,81.90
2023-04-26T20:14:45.632Z,81.80
2023-04-26T20:16:53.099Z,81.60
2023-04-26T20:19:00.680Z,81.70
2023-04-26T20:21:07.896Z,82.10
2023-04-26T20:23:17.019Z,82.30
2023-04-26T20:25:24.254Z,82.20
2023-04-26T20:27:31.795Z,82.50
2023-04-26T20:29:39.127Z,82.30
2023-04-26T20:31:46.632Z,81.90
2023-04-26T20:33:54.573Z,81.30
2023-04-26T20:36:02.057Z,81.00
2023-04-26T20:38:09.478Z,80.60
2023-04-26T20:40:18.674Z,80.30
2023-04-26T20:42:26.004Z,80.00
2023-04-26T20:44:33.596Z,80.20
2023-04-26T20:46:40.935Z,80.40
2023-04-26T20:48:48.629Z,80.10
2023-04-26T20:50:58.117Z,80.50
2023-04-26T20:53:06.474Z,80.20
2023-04-26T20:55:13.911Z,80.40
2023-04-26T20:57:23.040Z,81.00
2023-04-26T20:59:30.322Z,81.50
2023-04-26T21:01:37.926Z,81.00
2023-04-26T21:03:45.337Z,81.20
2023-04-26T21:05:52.794Z,81.20
2023-04-26T21:08:00.080Z,80.90
2023-04-26T21:10:07.919Z,81.20
2023-04-26T21:12:15.611Z,81.50
2023-04-26T21:14:25.063Z,81.40
2023-04-26T21:16:32.438Z,81.50
2023-04-26T21:18:39.923Z,81.00
2023-04-26T21:20:47.261Z,80.90
2023-04-26T21:22:54.542Z,81.70
2023-04-26T21:25:01.825Z,82.50
2023-04-26T21:27:09.372Z,82.60
2023-04-26T21:29:16.546Z,82.80
2023-04-26T21:31:25.971Z,83.10
2023-04-26T21:33:33.728Z,83.70
2023-04-26T21:35:41.112Z,83.80
2023-04-26T21:37:48.651Z,83.10
2023-04-26T21:39:55.882Z,82.40
2023-04-26T21:42:04.501Z,82.20
2023-04-26T21:44:12.154Z,82.00
2023-04-26T21:46:19.606Z,81.70
2023-04-26T21:48:28.658Z,82.10
2023-04-26T21:50:36.144Z,82.60
2023-04-26T21:52:43.479Z,82.90
2023-04-26T21:54:52.713Z,82.10
2023-04-26T21:57:00.172Z,81.30
2023-04-26T21:59:07.986Z,81.20
2023-04-26T22:01:17.888Z,81.20
2023-04-26T22:03:27.616Z,80.70
2023-04-26T22:05:35.330Z,81.20
2023-04-26T22:07:42.557Z,81.90
2023-04-26T22:09:49.847Z,82.30
2023-04-26T22:11:57.283Z,82.70
2023-04-26T22:14:04.616Z,83.50
2023-04-26T22:16:12.257Z,83.80
2023-04-26T22:18:19.442Z,84.40
2023-04-26T22:20:28.465Z,84.80
2023-04-26T22:22:35.529Z,84.80
2023-04-26T22:24:42.988Z,84.40
2023-04-26T22:26:50.318Z,85.10
2023-04-26T22:28:57.755Z,85.10
2023-04-26T22:31:04.942Z,85.50
2023-04-26T22:33:13.095Z,86.00
2023-04-26T22:35:20.169Z,85.80
2023-04-26T22:37:29.304Z,85.60
2023-04-26T22:39:36.579Z,85.50
2023-04-26T22:41:44.070Z,85.40
2023-04-26T22:43:53.241Z,85.50
2023-04-26T22:46:00.980Z,85.50
2023-04-26T22:48:08.464Z,85.10
2023-04-26T22:50:16.279Z,84.90
2023-04-26T22:52:31.334Z,84.90
2023-04-26T22:54:41.236Z,85.70
2023-04-26T22:56:48.505Z,85.90
2023-04-26T22:58:55.960Z,86.70
2023-04-26T23:01:03.054Z,88.10
2023-04-26T23:03:10.863Z,88.60
2023-04-26T23:05:18.171Z,88.80
2023-04-26T23:07:25.607Z,88.70
2023-04-26T23:09:32.876Z,88.50
2023-04-26T23:11:42.054Z,88.60
2023-04-26T23:13:50.327Z,89.00
2023-04-26T23:15:58.073Z,89.20
2023-04-26T23:18:05.548Z,89.20
2023-04-26T23:20:16.893Z,89.20
2023-04-26T23:22:24.175Z,89.10
2023-04-26T23:24:31.786Z,88.80
2023-04-26T23:26:38.907Z,88.80
2023-04-26T23:28:47.825Z,88.60
2023-04-26T23:30:54.997Z,88.50
2023-04-26T23:33:02.298Z,87.90
2023-04-26T23:35:10.589Z,88.20
2023-04-26T23:37:18.118Z,87.50
2023-04-26T23:39:25.413Z,87.30
2023-04-26T23:41:32.903Z,86.90
2023-04-26T23:43:40.120Z,86.30
2023-04-26T23:45:49.823Z,85.20
2023-04-26T23:47:57.211Z,84.70
2023-04-26T23:50:05.008Z,84.50
2023-04-26T23:52:12.558Z,84.00
2023-04-26T23:54:20.038Z,83.50
2023-04-26T23:56:27.476Z,82.70
2023-04-26T23:58:35.226Z,82.50
